Time;durP1;ratioP1;P1;durP2;ratioP2;P2;SDS_P1;SDS_P2;PMS_P1;PMS_P2;Temp;Humidity;BMP_temperature;BMP_pressure;BME280_temperature;BME280_humidity;BME280_pressure;Samples;Min_cycle;Max_cycle;Signal;HPM_P1;HPM_P2
2022/04/24 00:01:10;;;;;;;7.13;4.10;;;9.70;99.90;;;;;;4934017;29;20628;-73
2022/04/24 00:03:36;;;;;;;5.90;4.27;;;9.70;99.90;;;;;;4934672;29;20180;-73
2022/04/24 00:06:02;;;;;;;9.17;4.63;;;9.70;99.90;;;;;;4934180;29;20708;-73
2022/04/24 00:08:27;;;;;;;6.40;4.40;;;9.60;99.90;;;;;;4931918;29;20291;-73
2022/04/24 00:10:53;;;;;;;8.03;4.60;;;9.60;99.90;;;;;;4934538;29;20215;-74
2022/04/24 00:13:18;;;;;;;7.30;4.47;;;9.60;99.90;;;;;;4934759;29;20680;-73
2022/04/24 00:15:44;;;;;;;7.63;4.37;;;9.50;99.90;;;;;;4933784;29;20183;-73
2022/04/24 00:18:09;;;;;;;5.97;4.27;;;9.50;99.90;;;;;;4934217;29;20620;-73
2022/04/24 00:20:35;;;;;;;7.53;4.57;;;9.50;99.90;;;;;;4934861;29;20234;-73
2022/04/24 00:23:00;;;;;;;6.70;4.63;;;9.40;99.90;;;;;;4930112;29;20212;-74
2022/04/24 00:25:26;;;;;;;9.10;4.67;;;9.40;99.90;;;;;;4932945;29;20227;-74
2022/04/24 00:27:52;;;;;;;7.10;4.67;;;9.40;99.90;;;;;;4918036;29;20208;-74
2022/04/24 00:30:17;;;;;;;7.00;4.50;;;9.40;99.90;;;;;;4926450;29;20243;-73
2022/04/24 00:32:43;;;;;;;7.03;4.63;;;9.40;99.90;;;;;;4933256;29;20219;-73
2022/04/24 00:35:09;;;;;;;10.97;5.10;;;9.30;99.90;;;;;;4934697;28;20222;-74
2022/04/24 00:37:34;;;;;;;9.00;4.67;;;9.20;99.90;;;;;;4934826;29;20207;-73
2022/04/24 00:40:00;;;;;;;6.07;4.23;;;9.20;99.90;;;;;;4932395;29;20309;-74
2022/04/24 00:42:25;;;;;;;12.27;4.37;;;9.20;99.90;;;;;;4932562;29;20303;-74
2022/04/24 00:44:51;;;;;;;7.97;4.80;;;9.20;99.90;;;;;;4933848;29;20219;-73
2022/04/24 00:47:18;;;;;;;10.57;4.90;;;9.20;99.90;;;;;;4933720;28;20208;-73
2022/04/24 00:49:44;;;;;;;8.83;5.37;;;9.20;99.90;;;;;;4932909;29;20716;-74
2022/04/24 00:52:11;;;;;;;5.67;4.40;;;9.20;99.90;;;;;;4933486;28;20645;-73
2022/04/24 00:54:37;;;;;;;8.17;5.57;;;9.20;99.90;;;;;;4932680;29;20290;-73
2022/04/24 00:57:06;;;;;;;9.83;4.90;;;9.20;99.90;;;;;;4933377;29;20215;-73
2022/04/24 00:59:31;;;;;;;7.30;5.40;;;9.20;99.90;;;;;;4932679;29;20227;-73
2022/04/24 01:01:57;;;;;;;8.70;5.10;;;9.20;99.90;;;;;;4933937;29;20251;-73
2022/04/24 01:04:23;;;;;;;7.17;4.60;;;9.20;99.90;;;;;;4925844;28;20713;-73
2022/04/24 01:06:48;;;;;;;9.20;5.40;;;9.20;99.90;;;;;;4934289;29;20270;-73
2022/04/24 01:09:18;;;;;;;7.60;5.60;;;9.20;99.90;;;;;;4933152;29;20260;-73
2022/04/24 01:11:55;;;;;;;9.30;6.10;;;9.30;99.90;;;;;;4933894;29;20212;-73
2022/04/24 01:14:25;;;;;;;7.43;4.67;;;9.30;99.90;;;;;;4931107;29;20368;-73
2022/04/24 01:16:52;;;;;;;9.73;5.30;;;9.30;99.90;;;;;;4932240;29;20632;-73
2022/04/24 01:19:18;;;;;;;8.57;5.00;;;9.20;99.90;;;;;;4933581;29;20212;-73
2022/04/24 01:21:46;;;;;;;8.67;5.00;;;9.20;99.90;;;;;;4927765;29;20676;-74
2022/04/24 01:24:15;;;;;;;8.67;4.80;;;9.10;99.90;;;;;;4932686;29;20263;-74
2022/04/24 01:26:40;;;;;;;9.60;5.30;;;9.10;99.90;;;;;;4932985;29;20222;-73
2022/04/24 01:29:06;;;;;;;8.53;4.87;;;9.00;99.90;;;;;;4926747;29;20216;-73
2022/04/24 01:31:33;;;;;;;8.30;5.03;;;9.10;99.90;;;;;;4931299;29;20207;-73
2022/04/24 01:33:59;;;;;;;8.20;4.67;;;9.00;99.90;;;;;;4932284;29;20214;-73
2022/04/24 01:36:25;;;;;;;6.83;4.80;;;8.90;99.90;;;;;;4933108;28;20231;-73
2022/04/24 01:38:50;;;;;;;10.20;5.50;;;8.80;99.90;;;;;;4924611;29;20224;-73
2022/04/24 01:41:16;;;;;;;10.83;5.27;;;8.90;99.90;;;;;;4933026;28;20223;-73
2022/04/24 01:43:42;;;;;;;8.93;5.20;;;8.90;99.90;;;;;;4932943;29;20204;-74
2022/04/24 01:46:08;;;;;;;9.70;5.57;;;8.90;99.90;;;;;;4927042;28;20196;-73
2022/04/24 01:48:35;;;;;;;9.13;4.83;;;8.90;99.90;;;;;;4932630;29;20337;-73
2022/04/24 01:51:01;;;;;;;10.10;5.73;;;8.90;99.90;;;;;;4935317;29;20705;-71
2022/04/24 01:53:28;;;;;;;9.77;5.10;;;8.90;99.90;;;;;;4936445;29;20226;-73
2022/04/24 01:55:57;;;;;;;8.67;5.17;;;8.80;99.90;;;;;;4936471;29;20199;-73
2022/04/24 01:58:24;;;;;;;10.37;5.43;;;8.80;99.90;;;;;;4935546;28;20555;-73
2022/04/24 02:00:50;;;;;;;11.30;5.20;;;8.80;99.90;;;;;;4937096;29;20183;-73
2022/04/24 02:03:15;;;;;;;8.73;4.87;;;8.80;99.90;;;;;;4936409;29;20274;-73
2022/04/24 02:05:41;;;;;;;8.93;5.13;;;8.70;99.90;;;;;;4936165;29;20211;-74
2022/04/24 02:08:06;;;;;;;8.47;4.80;;;8.60;99.90;;;;;;4931291;29;20246;-73
2022/04/24 02:10:32;;;;;;;8.93;5.03;;;8.60;99.90;;;;;;4935858;29;20223;-73
2022/04/24 02:12:58;;;;;;;11.30;5.40;;;8.50;99.90;;;;;;4936477;29;20255;-74
2022/04/24 02:15:24;;;;;;;10.80;5.60;;;8.40;99.90;;;;;;4934479;29;20700;-73
2022/04/24 02:17:49;;;;;;;7.07;5.20;;;8.50;99.90;;;;;;4935392;29;20235;-73
2022/04/24 02:20:15;;;;;;;11.30;5.87;;;8.30;99.90;;;;;;4935470;29;20225;-73
2022/04/24 02:22:40;;;;;;;9.73;4.70;;;8.30;99.90;;;;;;4935451;29;20211;-73
2022/04/24 02:25:06;;;;;;;8.33;5.03;;;8.20;99.90;;;;;;4936278;29;20212;-73
2022/04/24 02:27:32;;;;;;;9.33;5.40;;;8.10;99.90;;;;;;4935683;29;20228;-73
2022/04/24 02:29:57;;;;;;;8.77;6.13;;;8.00;99.90;;;;;;4934778;29;20223;-73
2022/04/24 02:32:23;;;;;;;8.93;4.87;;;8.00;99.90;;;;;;4935314;29;20212;-73
2022/04/24 02:34:48;;;;;;;7.93;4.83;;;8.00;99.90;;;;;;4935413;29;20760;-73
2022/04/24 02:37:14;;;;;;;9.03;5.50;;;8.00;99.90;;;;;;4934193;29;20191;-76
2022/04/24 02:39:39;;;;;;;7.97;4.67;;;8.00;99.90;;;;;;4922389;29;20578;-73
2022/04/24 02:42:05;;;;;;;12.27;5.23;;;8.00;99.90;;;;;;4916275;29;20223;-73
2022/04/24 02:44:30;;;;;;;7.70;5.37;;;7.90;99.90;;;;;;4917534;29;20299;-73
2022/04/24 02:46:56;;;;;;;11.87;5.60;;;7.90;99.90;;;;;;4935331;29;20210;-73
2022/04/24 02:49:21;;;;;;;9.27;4.97;;;7.90;99.90;;;;;;4934353;29;20204;-71
2022/04/24 02:51:47;;;;;;;7.73;5.10;;;7.90;99.90;;;;;;4935728;29;20191;-73
2022/04/24 02:54:12;;;;;;;11.73;6.10;;;7.90;99.90;;;;;;4933882;29;20223;-73
2022/04/24 02:56:38;;;;;;;10.07;5.60;;;7.80;99.90;;;;;;4933598;29;20299;-73
2022/04/24 02:59:04;;;;;;;9.50;5.87;;;7.90;99.90;;;;;;4933286;29;20676;-73
2022/04/24 03:01:34;;;;;;;9.77;5.47;;;7.90;99.90;;;;;;4933555;29;20215;-73
2022/04/24 03:03:59;;;;;;;8.97;5.30;;;7.80;99.90;;;;;;4934191;29;20227;-73
2022/04/24 03:06:25;;;;;;;8.63;5.17;;;7.80;99.90;;;;;;4934796;29;20224;-73
2022/04/24 03:08:51;;;;;;;9.03;5.63;;;7.80;99.90;;;;;;4926825;29;20268;-73
2022/04/24 03:11:16;;;;;;;8.77;6.03;;;7.60;99.90;;;;;;4914614;29;20220;-73
2022/04/24 03:13:42;;;;;;;9.67;5.17;;;7.70;99.90;;;;;;4915572;29;20227;-74
2022/04/24 03:16:08;;;;;;;8.07;5.47;;;7.60;99.90;;;;;;4921939;29;20664;-74
2022/04/24 03:18:34;;;;;;;9.50;5.60;;;7.70;99.90;;;;;;4934236;29;20215;-74
2022/04/24 03:21:00;;;;;;;10.80;5.50;;;7.60;99.90;;;;;;4934726;29;20211;-73
2022/04/24 03:23:25;;;;;;;10.03;5.80;;;7.60;99.90;;;;;;4934457;29;20219;-73
2022/04/24 03:25:51;;;;;;;12.83;5.73;;;7.50;99.90;;;;;;4933198;29;20240;-73
2022/04/24 03:28:17;;;;;;;8.17;5.43;;;7.50;99.90;;;;;;4933773;29;20232;-73
2022/04/24 03:30:43;;;;;;;11.70;6.23;;;7.40;99.90;;;;;;4933377;29;20267;-73
2022/04/24 03:33:08;;;;;;;10.37;5.40;;;7.40;99.90;;;;;;4934487;29;20311;-73
2022/04/24 03:35:34;;;;;;;7.97;5.47;;;7.40;99.90;;;;;;4934160;29;20211;-73
2022/04/24 03:38:00;;;;;;;12.07;6.30;;;7.30;99.90;;;;;;4932297;29;20887;-73
2022/04/24 03:40:25;;;;;;;10.53;6.30;;;7.30;99.90;;;;;;4916234;29;20283;-73
2022/04/24 03:42:51;;;;;;;8.47;5.83;;;7.30;99.90;;;;;;4916145;29;20608;-73
2022/04/24 03:45:16;;;;;;;9.80;5.57;;;7.30;99.90;;;;;;4929708;29;20218;-73
2022/04/24 03:47:41;;;;;;;7.87;4.90;;;7.20;99.90;;;;;;4934029;29;20227;-73
2022/04/24 03:50:08;;;;;;;10.27;5.63;;;7.10;99.90;;;;;;4928056;29;20221;-72
2022/04/24 03:52:33;;;;;;;10.13;6.13;;;7.10;99.90;;;;;;4914793;29;20220;-73
2022/04/24 03:54:59;;;;;;;12.00;5.87;;;7.10;99.90;;;;;;4915750;29;20187;-73
2022/04/24 03:57:24;;;;;;;9.00;6.00;;;7.10;99.90;;;;;;4914852;29;20693;-73
2022/04/24 03:59:50;;;;;;;10.53;5.77;;;7.10;99.90;;;;;;4914267;29;20223;-73
2022/04/24 04:02:16;;;;;;;10.93;6.47;;;7.20;99.90;;;;;;4915312;29;20228;-73
2022/04/24 04:04:42;;;;;;;11.47;5.77;;;7.30;99.90;;;;;;4914836;29;20653;-73
2022/04/24 04:07:08;;;;;;;12.27;6.10;;;7.30;99.90;;;;;;4914826;29;20185;-73
2022/04/24 04:09:33;;;;;;;14.83;6.50;;;7.30;99.90;;;;;;4920926;29;20216;-74
2022/04/24 04:11:59;;;;;;;9.90;5.87;;;7.20;99.90;;;;;;4914614;29;20220;-73
2022/04/24 04:14:24;;;;;;;12.67;6.30;;;7.30;99.90;;;;;;4914527;29;20748;-73
2022/04/24 04:16:50;;;;;;;13.43;6.10;;;7.30;99.90;;;;;;4913417;29;20212;-74
2022/04/24 04:19:16;;;;;;;9.23;6.27;;;7.30;99.90;;;;;;4913885;29;20657;-73
2022/04/24 04:21:46;;;;;;;11.77;6.47;;;7.40;99.90;;;;;;4914991;29;20188;-73
2022/04/24 04:24:12;;;;;;;11.80;6.00;;;7.60;99.90;;;;;;4914662;29;20216;-73
2022/04/24 04:26:38;;;;;;;12.60;5.73;;;7.50;99.90;;;;;;4915660;29;20215;-73
2022/04/24 04:29:03;;;;;;;10.63;6.30;;;7.60;99.90;;;;;;4932806;29;20211;-73
2022/04/24 04:31:29;;;;;;;11.70;6.27;;;7.70;99.90;;;;;;4933461;29;20302;-74
2022/04/24 04:33:55;;;;;;;7.77;5.63;;;7.70;99.90;;;;;;4933937;29;20855;-73
2022/04/24 04:36:20;;;;;;;11.33;6.57;;;9.00;99.90;;;;;;4933555;29;20212;-73
2022/04/24 04:38:46;;;;;;;11.70;5.97;;;10.40;99.90;;;;;;4931245;29;20367;-74
2022/04/24 04:41:12;;;;;;;9.07;5.70;;;11.10;99.90;;;;;;4928056;23;20315;-69
2022/04/24 04:43:37;;;;;;;9.43;5.53;;;11.30;99.90;;;;;;4895857;29;20217;-69
2022/04/24 04:46:03;;;;;;;10.00;5.57;;;11.90;99.90;;;;;;4896265;29;20189;-70
2022/04/24 04:48:29;;;;;;;8.80;5.27;;;12.40;99.90;;;;;;4895196;29;20715;-69
2022/04/24 04:50:54;;;;;;;11.67;5.77;;;13.10;99.90;;;;;;4895739;29;20638;-70
2022/04/24 04:53:20;;;;;;;11.47;6.03;;;12.90;99.90;;;;;;4895768;29;20217;-69
2022/04/24 04:55:46;;;;;;;8.73;5.47;;;13.50;99.90;;;;;;4895777;29;20237;-70
2022/04/24 04:58:12;;;;;;;12.53;5.27;;;14.40;99.90;;;;;;4878544;29;20191;-70
2022/04/24 05:00:37;;;;;;;9.57;5.87;;;14.70;99.90;;;;;;4895920;29;20209;-69
2022/04/24 05:03:03;;;;;;;9.63;5.60;;;14.80;99.90;;;;;;4895822;29;20249;-69
2022/04/24 05:05:28;;;;;;;7.80;5.70;;;14.40;99.90;;;;;;4895612;29;20312;-70
2022/04/24 05:07:54;;;;;;;9.37;5.87;;;15.00;99.90;;;;;;4878724;29;20620;-69
2022/04/24 05:10:19;;;;;;;9.17;5.20;;;15.30;99.90;;;;;;4895218;29;20216;-70
2022/04/24 05:12:45;;;;;;;9.47;6.43;;;15.30;99.90;;;;;;4895834;29;20217;-70
2022/04/24 05:15:13;;;;;;;8.30;5.23;;;15.50;99.90;;;;;;4895520;29;20225;-69
2022/04/24 05:17:40;;;;;;;9.97;5.73;;;15.70;99.90;;;;;;4878434;29;20217;-69
2022/04/24 05:20:08;;;;;;;9.87;6.13;;;14.50;99.90;;;;;;4895248;29;20216;-70
2022/04/24 05:22:33;;;;;;;11.43;6.60;;;14.20;99.90;;;;;;4896633;29;20678;-69
2022/04/24 05:24:59;;;;;;;7.70;6.10;;;13.00;99.90;;;;;;4900107;29;20193;-70
2022/04/24 05:27:25;;;;;;;8.07;5.90;;;12.00;99.90;;;;;;4882698;29;20225;-70
2022/04/24 05:29:50;;;;;;;7.17;5.30;;;11.40;99.90;;;;;;4898349;29;20694;-70
2022/04/24 05:32:16;;;;;;;10.77;6.13;;;11.00;99.90;;;;;;4906371;29;20212;-70
2022/04/24 05:34:42;;;;;;;9.77;6.20;;;10.30;99.90;;;;;;4917886;29;20220;-69
2022/04/24 05:37:08;;;;;;;9.30;6.50;;;9.90;99.90;;;;;;4918103;29;20189;-70
2022/04/24 05:39:34;;;;;;;13.30;6.93;;;10.10;99.90;;;;;;4900697;29;20185;-70
2022/04/24 05:41:59;;;;;;;11.77;6.30;;;9.70;99.90;;;;;;4919745;29;20225;-69
2022/04/24 05:44:25;;;;;;;9.00;6.17;;;9.70;99.90;;;;;;4936603;29;20303;-69
2022/04/24 05:46:51;;;;;;;10.40;6.43;;;10.10;99.90;;;;;;4936816;29;20267;-69
2022/04/24 05:49:17;;;;;;;9.77;6.53;;;10.40;99.90;;;;;;4936334;29;20551;-69
2022/04/24 05:51:42;;;;;;;9.27;6.37;;;11.10;99.90;;;;;;4920097;29;20216;-69
2022/04/24 05:54:09;;;;;;;10.23;6.43;;;11.40;99.90;;;;;;4937388;29;20290;-69
2022/04/24 05:56:34;;;;;;;6.80;5.27;;;12.90;99.90;;;;;;4918814;29;20229;-69
2022/04/24 05:59:00;;;;;;;9.80;5.80;;;15.10;99.90;;;;;;4917097;29;20299;-70
2022/04/24 06:01:25;;;;;;;9.93;5.35;;;16.80;99.90;;;;;;4917906;29;20204;-70
2022/04/24 06:03:51;;;;;;;9.48;5.80;;;17.10;99.90;;;;;;4918782;29;20203;-71
2022/04/24 06:06:16;;;;;;;10.23;6.25;;;17.80;99.90;;;;;;4901017;29;20344;-71
2022/04/24 06:08:43;;;;;;;11.63;5.95;;;17.10;99.90;;;;;;4917376;29;20594;-70
2022/04/24 06:11:08;;;;;;;8.20;5.93;;;17.80;99.90;;;;;;4900770;29;20224;-73
2022/04/24 06:13:34;;;;;;;8.90;5.88;;;16.10;99.90;;;;;;4917759;29;20226;-70
2022/04/24 06:16:00;;;;;;;10.38;5.65;;;15.20;99.90;;;;;;4919063;29;20172;-69
2022/04/24 06:18:29;;;;;;;8.68;6.13;;;14.20;99.90;;;;;;4901063;29;20704;-69
2022/04/24 06:20:55;;;;;;;12.27;6.60;;;13.50;99.90;;;;;;4919025;29;20212;-70
2022/04/24 06:23:20;;;;;;;9.30;5.87;;;12.50;99.90;;;;;;4934269;29;20215;-70
2022/04/24 06:25:46;;;;;;;9.40;6.23;;;11.80;99.90;;;;;;4937096;29;20629;-69
2022/04/24 06:28:12;;;;;;;19.00;11.60;;;11.40;99.90;;;;;;4921948;29;20208;-70
2022/04/24 06:30:41;;;;;;;11.53;7.00;;;11.60;99.90;;;;;;4917746;29;20201;-70
2022/04/24 06:33:10;;;;;;;11.10;7.27;;;13.50;99.90;;;;;;4917067;29;20215;-70
2022/04/24 06:35:36;;;;;;;9.47;5.90;;;13.70;99.90;;;;;;4917156;29;20211;-70
2022/04/24 06:38:02;;;;;;;11.40;6.07;;;13.50;99.90;;;;;;4916685;29;20215;-70
2022/04/24 06:40:27;;;;;;;10.77;5.65;;;14.80;99.90;;;;;;4916685;29;20223;-70
2022/04/24 06:43:06;;;;;;;8.82;6.10;;;15.30;99.90;;;;;;4917746;29;20177;-70
2022/04/24 06:45:33;;;;;;;8.35;5.75;;;15.80;99.90;;;;;;4917297;29;20212;-70
2022/04/24 06:48:01;;;;;;;10.20;5.75;;;16.50;99.90;;;;;;4916269;29;20219;-69
2022/04/24 06:50:28;;;;;;;12.68;6.65;;;15.20;99.90;;;;;;4916777;29;20236;-70
2022/04/24 06:52:58;;;;;;;9.98;6.00;;;14.60;99.90;;;;;;4899879;29;20204;-70
2022/04/24 06:55:24;;;;;;;8.85;6.05;;;15.10;99.90;;;;;;4916683;29;20185;-70
2022/04/24 06:57:51;;;;;;;9.57;5.82;;;15.90;99.90;;;;;;4900219;29;20184;-70
2022/04/24 07:00:21;;;;;;;9.05;6.15;;;14.80;99.90;;;;;;4899325;29;20213;-70
2022/04/24 07:02:47;;;;;;;9.68;6.60;;;15.40;99.90;;;;;;4899714;29;20208;-70
2022/04/24 07:05:14;;;;;;;9.77;6.35;;;14.60;99.90;;;;;;4916513;29;20220;-70
2022/04/24 07:07:39;;;;;;;9.10;6.32;;;14.30;99.90;;;;;;4916122;29;20295;-70
2022/04/24 07:10:05;;;;;;;10.65;6.78;;;14.20;99.90;;;;;;4899880;29;20240;-70
2022/04/24 07:12:31;;;;;;;10.70;6.80;;;15.30;99.90;;;;;;4899631;29;20219;-70
2022/04/24 07:14:56;;;;;;;9.82;6.50;;;15.80;99.90;;;;;;4899605;29;20235;-70
2022/04/24 07:17:22;;;;;;;9.95;6.72;;;16.30;99.90;;;;;;4899198;29;20223;-70
2022/04/24 07:19:48;;;;;;;11.23;6.65;;;17.20;99.90;;;;;;4898755;29;20220;-70
2022/04/24 07:22:16;;;;;;;7.60;5.70;;;17.80;99.90;;;;;;4916211;29;20185;-70
2022/04/24 07:24:41;;;;;;;10.38;6.90;;;18.30;99.90;;;;;;4916858;29;20191;-70
2022/04/24 07:27:07;;;;;;;7.75;5.80;;;17.50;99.90;;;;;;4916675;29;20208;-70
2022/04/24 07:29:32;;;;;;;9.93;6.75;;;17.80;99.90;;;;;;4915827;29;20216;-70
2022/04/24 07:31:57;;;;;;;6.90;5.72;;;17.60;99.90;;;;;;4916241;29;20208;-70
2022/04/24 07:34:23;;;;;;;8.32;5.82;;;18.90;99.90;;;;;;4916029;29;20574;-69
2022/04/24 07:36:48;;;;;;;8.50;5.85;;;19.80;99.90;;;;;;4916431;29;20549;-70
2022/04/24 07:39:14;;;;;;;8.70;5.70;;;19.80;99.90;;;;;;4915402;29;20605;-70
2022/04/24 07:41:39;;;;;;;12.43;8.20;;;21.10;99.90;;;;;;4915642;29;20223;-70
2022/04/24 07:44:06;;;;;;;8.18;6.07;;;21.20;99.90;;;;;;4899237;29;20604;-70
2022/04/24 07:46:33;;;;;;;8.45;5.85;;;21.80;99.90;;;;;;4915627;29;20212;-70
2022/04/24 07:48:59;;;;;;;7.97;5.80;;;21.20;99.90;;;;;;4898765;29;20263;-70
2022/04/24 07:51:24;;;;;;;8.93;6.57;;;19.90;99.90;;;;;;4915496;29;20442;-70
2022/04/24 07:53:50;;;;;;;10.30;7.90;;;19.60;99.90;;;;;;4915390;29;20227;-70
2022/04/24 07:56:15;;;;;;;8.63;6.60;;;19.90;99.90;;;;;;4915475;29;20208;-69
2022/04/24 07:58:41;;;;;;;10.73;6.95;;;19.00;99.90;;;;;;4897863;29;20700;-70
2022/04/24 08:01:07;;;;;;;9.07;6.78;;;18.80;99.90;;;;;;4915239;29;20208;-70
2022/04/24 08:03:32;;;;;;;7.82;5.85;;;19.00;99.90;;;;;;4915780;29;20184;-69
2022/04/24 08:05:58;;;;;;;9.98;6.50;;;20.30;99.90;;;;;;4898302;29;20212;-70
2022/04/24 08:08:24;;;;;;;7.78;5.45;;;20.70;99.90;;;;;;4914386;29;20216;-70
2022/04/24 08:10:52;;;;;;;9.70;6.10;;;20.70;99.90;;;;;;4915212;29;20220;-70
2022/04/24 08:13:18;;;;;;;6.68;5.47;;;20.40;99.90;;;;;;4898296;29;20700;-69
2022/04/24 08:15:45;;;;;;;6.78;4.95;;;19.40;99.90;;;;;;4915539;29;20226;-69
2022/04/24 08:18:11;;;;;;;8.90;5.97;;;18.60;99.90;;;;;;4914565;29;20686;-69
2022/04/24 08:20:38;;;;;;;8.38;5.53;;;17.50;99.90;;;;;;4914965;29;20259;-70
2022/04/24 08:23:04;;;;;;;7.05;5.40;;;17.80;99.90;;;;;;4915206;29;20645;-70
2022/04/24 08:25:37;;;;;;;10.27;5.20;;;18.90;99.90;;;;;;4915169;29;20710;-70
2022/04/24 08:28:08;;;;;;;6.15;5.32;;;18.80;99.90;;;;;;4898432;29;20247;-69
2022/04/24 08:30:35;;;;;;;7.50;5.20;;;20.10;99.90;;;;;;4915189;29;20583;-70
2022/04/24 08:33:01;;;;;;;9.05;5.50;;;19.80;99.90;;;;;;4914868;29;20208;-70
2022/04/24 08:35:26;;;;;;;7.35;5.07;;;20.20;99.90;;;;;;4915015;29;20231;-71
2022/04/24 08:37:52;;;;;;;5.50;4.85;;;20.50;99.90;;;;;;4915086;29;20294;-70
2022/04/24 08:40:20;;;;;;;7.90;5.20;;;20.90;99.20;;;;;;4914601;29;20600;-70
2022/04/24 08:42:46;;;;;;;7.70;5.20;;;20.70;99.40;;;;;;4915923;29;20176;-70
2022/04/24 08:45:14;;;;;;;11.07;8.80;;;19.20;99.90;;;;;;4898223;29;20209;-70
2022/04/24 08:47:43;;;;;;;9.05;5.22;;;20.10;99.90;;;;;;4914743;29;20224;-70
2022/04/24 08:50:11;;;;;;;6.03;5.03;;;19.90;99.80;;;;;;4914508;29;20216;-70
2022/04/24 08:52:37;;;;;;;6.82;5.07;;;19.60;99.90;;;;;;4914697;29;20219;-70
2022/04/24 08:55:03;;;;;;;9.27;5.65;;;19.90;99.60;;;;;;4915455;29;20220;-70
2022/04/24 08:57:32;;;;;;;5.25;4.57;;;20.50;98.90;;;;;;4916658;29;20212;-70
2022/04/24 08:59:59;;;;;;;6.75;4.57;;;21.10;97.80;;;;;;4918669;29;20220;-70
2022/04/24 09:02:25;;;;;;;6.65;4.55;;;21.50;97.10;;;;;;4901984;29;20220;-70
2022/04/24 09:04:52;;;;;;;7.10;4.57;;;22.30;96.10;;;;;;4902245;29;20215;-70
2022/04/24 09:07:19;;;;;;;6.55;4.70;;;22.20;95.60;;;;;;4919012;29;20267;-70
2022/04/24 09:09:47;;;;;;;8.85;4.75;;;20.50;96.60;;;;;;4918769;29;20177;-70
2022/04/24 09:12:18;;;;;;;7.80;5.15;;;20.20;97.70;;;;;;4919027;29;20212;-70
2022/04/24 09:14:48;;;;;;;14.90;10.60;;;19.40;98.50;;;;;;4918567;29;20216;-70
2022/04/24 09:17:22;;;;;;;7.68;5.90;;;18.90;99.90;;;;;;4918921;29;20220;-70
2022/04/24 09:19:48;;;;;;;6.60;5.30;;;19.10;99.30;;;;;;4901332;29;20276;-70
2022/04/24 09:22:14;;;;;;;7.78;5.53;;;19.40;99.20;;;;;;4918485;29;20177;-70
2022/04/24 09:24:41;;;;;;;6.60;4.93;;;18.40;99.90;;;;;;4919626;29;20257;-71
2022/04/24 09:27:07;;;;;;;6.32;4.82;;;18.70;99.90;;;;;;4902473;29;20303;-70
2022/04/24 09:29:33;;;;;;;5.00;4.25;;;18.50;99.90;;;;;;4918355;29;20654;-70
2022/04/24 09:31:58;;;;;;;6.70;5.13;;;18.90;99.90;;;;;;4902330;29;20300;-70
2022/04/24 09:34:31;;;;;;;7.15;5.70;;;19.20;99.90;;;;;;4919114;29;20573;-70
2022/04/24 09:37:02;;;;;;;6.15;4.38;;;19.00;99.90;;;;;;4919764;29;20184;-70
2022/04/24 09:39:35;;;;;;;5.40;4.25;;;18.40;99.90;;;;;;4918409;29;20208;-70
2022/04/24 09:42:12;;;;;;;6.70;4.60;;;17.80;99.90;;;;;;4902054;29;20241;-70
2022/04/24 09:44:39;;;;;;;5.72;4.55;;;17.90;99.90;;;;;;4918937;29;20569;-71
2022/04/24 09:47:05;;;;;;;15.18;5.22;;;18.20;99.90;;;;;;4902188;29;20212;-69
2022/04/24 09:49:36;;;;;;;6.93;4.85;;;17.60;99.90;;;;;;4917127;29;20212;-69
2022/04/24 09:52:02;;;;;;;11.88;8.65;;;17.40;99.90;;;;;;4901842;29;20176;-69
2022/04/24 09:54:28;;;;;;;9.02;5.32;;;17.30;99.90;;;;;;4918400;29;20576;-70
2022/04/24 09:56:56;;;;;;;6.38;4.68;;;17.20;99.90;;;;;;4902020;29;20248;-70
2022/04/24 09:59:23;;;;;;;11.60;5.20;;;17.70;99.90;;;;;;4917519;29;20212;-71
2022/04/24 10:01:49;;;;;;;5.97;4.90;;;18.30;99.90;;;;;;4918866;29;20204;-69
2022/04/24 10:04:16;;;;;;;7.90;5.03;;;18.20;99.90;;;;;;4917922;29;20196;-70
2022/04/24 10:06:44;;;;;;;6.03;4.85;;;18.90;99.90;;;;;;4918252;29;20557;-70
2022/04/24 10:09:11;;;;;;;8.90;4.97;;;18.90;99.90;;;;;;4916963;29;20223;-69
2022/04/24 10:11:37;;;;;;;7.15;4.57;;;18.60;99.90;;;;;;4900785;29;20307;-70
2022/04/24 10:14:07;;;;;;;9.70;5.00;;;18.30;99.90;;;;;;4900804;29;20369;-70
2022/04/24 10:16:42;;;;;;;5.13;4.40;;;18.40;99.90;;;;;;4900725;29;20216;-70
2022/04/24 10:19:28;;;;;;;7.07;4.82;;;18.40;99.90;;;;;;4916911;29;20188;-71
2022/04/24 10:22:06;;;;;;;6.07;5.47;;;18.30;99.90;;;;;;4902035;29;20619;-70
2022/04/24 10:24:42;;;;;;;5.63;4.53;;;17.90;99.90;;;;;;4918462;29;20212;-71
2022/04/24 10:27:11;;;;;;;8.77;5.40;;;17.70;99.90;;;;;;4918586;29;20212;-70
2022/04/24 10:29:47;;;;;;;8.02;4.90;;;18.30;99.90;;;;;;4916866;29;20232;-70
2022/04/24 10:32:24;;;;;;;7.70;5.30;;;17.70;99.90;;;;;;4900452;29;20254;-69
2022/04/24 10:34:49;;;;;;;5.35;4.40;;;17.80;99.90;;;;;;4917718;29;20220;-69
2022/04/24 10:37:27;;;;;;;8.40;4.90;;;18.10;99.90;;;;;;4917360;29;20227;-69
2022/04/24 10:39:58;;;;;;;7.38;4.50;;;17.50;99.90;;;;;;4916819;29;20594;-71
2022/04/24 10:42:36;;;;;;;7.57;5.13;;;17.20;99.90;;;;;;4925087;23;20247;-71
2022/04/24 10:45:18;;;;;;;6.43;4.45;;;17.50;99.90;;;;;;4918488;29;20211;-70
2022/04/24 10:47:49;;;;;;;6.53;4.68;;;17.60;99.90;;;;;;4935296;29;20726;-72
2022/04/24 10:50:19;;;;;;;7.72;4.20;;;17.20;99.90;;;;;;4935403;29;20212;-72
2022/04/24 10:52:47;;;;;;;6.75;4.78;;;17.00;99.90;;;;;;4931588;29;20567;-71
2022/04/24 10:55:14;;;;;;;6.70;4.57;;;17.10;99.90;;;;;;4935634;28;20195;-72
2022/04/24 10:57:42;;;;;;;5.75;4.53;;;17.60;99.90;;;;;;4935323;29;20180;-71
2022/04/24 11:00:22;;;;;;;7.50;4.65;;;18.00;99.90;;;;;;4934620;29;20218;-72
2022/04/24 11:02:48;;;;;;;6.53;3.90;;;18.10;99.90;;;;;;4935171;29;20351;-72
2022/04/24 11:05:20;;;;;;;19.17;13.65;;;17.50;99.90;;;;;;4935337;29;20204;-72
2022/04/24 11:07:46;;;;;;;7.75;5.35;;;17.60;99.90;;;;;;4935131;29;20274;-73
2022/04/24 11:10:14;;;;;;;8.68;6.00;;;17.80;99.90;;;;;;4935203;29;20320;-71
2022/04/24 11:12:40;;;;;;;6.53;4.97;;;17.20;99.90;;;;;;4934342;29;20200;-73
2022/04/24 11:15:11;;;;;;;6.97;5.00;;;17.10;99.90;;;;;;4935340;29;20365;-72
2022/04/24 11:17:37;;;;;;;6.38;4.80;;;17.20;99.90;;;;;;4935333;29;20212;-72
2022/04/24 11:20:11;;;;;;;9.25;4.90;;;17.20;99.90;;;;;;4933750;28;20283;-71
2022/04/24 11:22:52;;;;;;;6.10;4.60;;;17.50;99.90;;;;;;4934974;29;20216;-72
2022/04/24 11:25:25;;;;;;;8.43;4.68;;;17.90;99.90;;;;;;4935160;28;20188;-73
2022/04/24 11:27:56;;;;;;;5.38;4.53;;;17.90;99.90;;;;;;4935169;29;20839;-72
2022/04/24 11:30:25;;;;;;;6.25;4.53;;;17.60;99.90;;;;;;4934234;29;20212;-72
2022/04/24 11:32:59;;;;;;;6.05;4.22;;;17.70;99.90;;;;;;4934468;29;20220;-73
2022/04/24 11:35:30;;;;;;;7.38;4.70;;;17.80;99.90;;;;;;4934631;29;20207;-72
2022/04/24 11:37:55;;;;;;;7.40;4.97;;;17.50;99.90;;;;;;4933247;29;20215;-71
2022/04/24 11:40:22;;;;;;;6.75;5.18;;;17.40;99.90;;;;;;4933032;29;20179;-72
2022/04/24 11:42:48;;;;;;;6.65;4.55;;;17.50;99.90;;;;;;4933549;29;20271;-71
2022/04/24 11:50:53;;;;;;;6.15;4.03;;;17.80;99.90;;;;;;4934499;28;20210;-72
2022/04/24 11:53:20;;;;;;;5.25;3.53;;;17.90;99.90;;;;;;4934786;29;20735;-72
2022/04/24 11:56:02;;;;;;;4.82;3.85;;;17.80;99.90;;;;;;4934504;28;20776;-71
2022/04/24 11:58:38;;;;;;;5.97;3.50;;;17.70;99.90;;;;;;4933709;29;20228;-71
2022/04/24 12:01:07;;;;;;;4.63;3.08;;;17.50;99.90;;;;;;4935036;29;20196;-71
2022/04/24 12:03:34;;;;;;;6.30;3.83;;;17.30;99.90;;;;;;4934472;29;20212;-71
2022/04/24 12:06:00;;;;;;;5.45;4.07;;;17.70;99.90;;;;;;4934335;29;20207;-73
2022/04/24 12:08:43;;;;;;;6.00;3.42;;;17.80;99.90;;;;;;4933416;29;20267;-73
2022/04/24 12:11:10;;;;;;;5.72;3.40;;;17.90;99.90;;;;;;4934281;29;20302;-72
2022/04/24 12:13:36;;;;;;;6.18;3.20;;;17.90;99.90;;;;;;4933920;29;20287;-71
2022/04/24 12:16:02;;;;;;;7.18;3.58;;;17.30;99.90;;;;;;4933327;29;20179;-71
2022/04/24 12:18:28;;;;;;;7.07;3.47;;;17.30;99.90;;;;;;4932017;29;20212;-71
2022/04/24 12:20:54;;;;;;;7.45;3.78;;;17.30;99.90;;;;;;4933813;29;20216;-72
2022/04/24 12:23:20;;;;;;;5.72;3.72;;;17.20;99.90;;;;;;4934255;29;20225;-72
2022/04/24 12:25:48;;;;;;;4.80;3.50;;;17.00;99.90;;;;;;4932810;29;20290;-71
2022/04/24 12:28:31;;;;;;;5.80;3.75;;;17.00;99.90;;;;;;4933364;29;20535;-72
2022/04/24 12:30:57;;;;;;;4.90;3.38;;;17.30;99.90;;;;;;4934268;29;20168;-71
2022/04/24 12:33:23;;;;;;;3.10;2.80;;;17.60;99.90;;;;;;4932215;29;20311;-72
2022/04/24 12:35:48;;;;;;;5.30;3.58;;;17.80;99.90;;;;;;4932374;29;20247;-72
2022/04/24 12:38:16;;;;;;;6.15;3.55;;;17.90;99.90;;;;;;4933050;29;20203;-72
2022/04/24 12:40:52;;;;;;;4.72;3.20;;;17.80;99.90;;;;;;4933719;29;20199;-72
2022/04/24 12:43:24;;;;;;;4.82;3.33;;;18.20;99.90;;;;;;4930899;28;20203;-72
2022/04/24 12:45:50;;;;;;;5.07;3.15;;;18.30;99.90;;;;;;4934173;29;20713;-71
2022/04/24 12:48:15;;;;;;;4.07;3.42;;;18.30;99.90;;;;;;4913211;29;20307;-76
2022/04/24 12:50:40;;;;;;;4.57;2.95;;;18.10;99.90;;;;;;4923089;29;20604;-74
2022/04/24 12:53:07;;;;;;;5.07;3.47;;;18.30;99.90;;;;;;4932029;29;20215;-77